Time;durP1;ratioP1;P1;durP2;ratioP2;P2;SDS_P1;SDS_P2;PMS_P1;PMS_P2;Temp;Humidity;BMP_temperature;BMP_pressure;BME280_temperature;BME280_humidity;BME280_pressure;Samples;Min_cycle;Max_cycle;Signal;HPM_P1;HPM_P2
2023/12/16 00:01:45;;;;;;;21.23;14.50;;;9.60;99.90;;;;;;4953926;29;20234;-76
2023/12/16 00:04:12;;;;;;;20.35;14.15;;;9.60;99.90;;;;;;4945805;28;20228;-81
2023/12/16 00:06:39;;;;;;;23.88;15.13;;;9.60;99.90;;;;;;4954370;29;20220;-76
2023/12/16 00:09:06;;;;;;;18.65;13.15;;;9.60;99.90;;;;;;4956889;29;20234;-76
2023/12/16 00:11:34;;;;;;;24.10;14.38;;;9.60;99.90;;;;;;4960592;29;20248;-80
2023/12/16 00:14:01;;;;;;;18.63;13.73;;;9.60;99.90;;;;;;4962981;29;20255;-81
2023/12/16 00:16:29;;;;;;;21.73;12.98;;;9.60;99.90;;;;;;4956776;28;20235;-75
2023/12/16 00:19:00;;;;;;;20.17;12.20;;;9.60;99.90;;;;;;4954772;28;20228;-81
2023/12/16 00:21:27;;;;;;;17.38;12.68;;;9.60;99.90;;;;;;4956187;28;20299;-80
2023/12/16 00:23:54;;;;;;;23.23;12.77;;;9.60;99.90;;;;;;4956233;29;20244;-81
2023/12/16 00:26:21;;;;;;;18.83;13.60;;;9.60;99.90;;;;;;4958313;29;20230;-81
2023/12/16 00:28:48;;;;;;;16.85;11.75;;;9.50;99.90;;;;;;4956782;28;20256;-80
2023/12/16 00:31:15;;;;;;;19.63;13.18;;;9.60;99.90;;;;;;4958883;29;20239;-80
2023/12/16 00:33:43;;;;;;;23.23;12.10;;;9.60;99.90;;;;;;4958052;29;20236;-76
2023/12/16 00:36:11;;;;;;;18.42;12.30;;;9.60;99.90;;;;;;4958668;29;20220;-76
2023/12/16 00:38:38;;;;;;;17.00;12.00;;;9.60;99.90;;;;;;4958563;29;20282;-80
2023/12/16 00:41:05;;;;;;;21.05;13.13;;;9.60;99.90;;;;;;4961038;28;20549;-78
2023/12/16 00:43:32;;;;;;;27.50;16.05;;;9.60;99.90;;;;;;4969554;28;20741;-75
2023/12/16 00:45:59;;;;;;;28.40;16.50;;;9.60;99.90;;;;;;4957533;28;20244;-80
2023/12/16 00:48:26;;;;;;;26.13;15.30;;;9.60;99.90;;;;;;4957805;28;20252;-76
2023/12/16 00:50:55;;;;;;;22.35;13.57;;;9.60;99.90;;;;;;4947656;28;20228;-76
2023/12/16 00:53:22;;;;;;;28.00;15.75;;;9.60;99.90;;;;;;4960254;28;20243;-75
2023/12/16 00:55:49;;;;;;;28.02;15.38;;;9.60;99.90;;;;;;4960349;28;20232;-76
2023/12/16 00:58:16;;;;;;;20.05;14.02;;;9.60;99.90;;;;;;4956856;28;20577;-80
2023/12/16 01:00:43;;;;;;;23.77;14.45;;;9.60;99.90;;;;;;4958152;28;20228;-80
2023/12/16 01:03:10;;;;;;;23.45;13.80;;;9.60;99.90;;;;;;4957745;28;20307;-81
2023/12/16 01:05:38;;;;;;;26.17;14.43;;;9.60;99.90;;;;;;4957999;28;20570;-80
2023/12/16 01:08:07;;;;;;;21.08;14.48;;;9.60;99.90;;;;;;4958029;28;20259;-75
2023/12/16 01:10:35;;;;;;;20.40;12.25;;;9.60;99.90;;;;;;4957775;28;20307;-80
2023/12/16 01:13:02;;;;;;;21.10;13.38;;;9.60;99.90;;;;;;4957374;28;20232;-76
2023/12/16 01:15:29;;;;;;;20.67;13.95;;;9.60;99.90;;;;;;4949466;29;20224;-80
2023/12/16 01:17:56;;;;;;;20.73;12.27;;;9.60;99.90;;;;;;4957650;29;20591;-76
2023/12/16 01:20:25;;;;;;;26.52;14.80;;;9.60;99.90;;;;;;4957900;29;20557;-80
2023/12/16 01:22:52;;;;;;;22.42;14.73;;;9.60;99.90;;;;;;4949184;28;20624;-79
2023/12/16 01:25:20;;;;;;;22.05;14.25;;;9.60;99.90;;;;;;4957680;28;20752;-75
2023/12/16 01:27:48;;;;;;;25.42;13.90;;;9.60;99.90;;;;;;4957347;28;20236;-75
2023/12/16 01:30:15;;;;;;;33.58;15.85;;;9.60;99.90;;;;;;4957047;28;20223;-75
2023/12/16 01:32:43;;;;;;;18.50;14.00;;;9.60;99.90;;;;;;4957274;28;20260;-75
2023/12/16 01:35:10;;;;;;;21.95;14.10;;;9.60;99.90;;;;;;4956995;28;20239;-75
2023/12/16 01:37:38;;;;;;;23.85;15.18;;;9.60;99.90;;;;;;4956925;28;20235;-75
2023/12/16 01:40:06;;;;;;;23.75;14.23;;;9.60;99.90;;;;;;4956837;28;20232;-75
2023/12/16 01:42:35;;;;;;;24.83;13.55;;;9.60;99.90;;;;;;4956897;28;20228;-75
2023/12/16 01:45:08;;;;;;;21.05;12.27;;;9.60;99.90;;;;;;4936702;29;20232;-75
2023/12/16 01:47:36;;;;;;;24.38;14.48;;;9.60;99.90;;;;;;4937212;29;20221;-75
2023/12/16 01:50:03;;;;;;;24.63;13.00;;;9.60;99.90;;;;;;4936930;29;20283;-80
2023/12/16 01:52:31;;;;;;;19.42;14.10;;;9.60;99.90;;;;;;4937545;29;20228;-81
2023/12/16 01:54:58;;;;;;;24.83;14.63;;;9.60;99.90;;;;;;4937399;29;20280;-76
2023/12/16 01:57:25;;;;;;;23.35;13.63;;;9.70;99.90;;;;;;4937695;29;20225;-80
2023/12/16 01:59:54;;;;;;;24.35;13.75;;;9.60;99.90;;;;;;4937795;29;20232;-77
2023/12/16 02:02:22;;;;;;;16.75;12.52;;;9.60;99.90;;;;;;4937613;29;20224;-80
2023/12/16 02:04:50;;;;;;;19.63;13.90;;;9.60;99.90;;;;;;4937044;29;20228;-80
2023/12/16 02:07:17;;;;;;;20.80;13.55;;;9.70;99.90;;;;;;4936972;29;20382;-76
2023/12/16 02:09:44;;;;;;;19.50;13.38;;;9.60;99.90;;;;;;4937483;29;20240;-76
2023/12/16 02:12:11;;;;;;;19.58;12.15;;;9.60;99.90;;;;;;4936678;29;20233;-76
2023/12/16 02:14:38;;;;;;;24.35;12.55;;;9.70;99.90;;;;;;4937093;29;20232;-75
2023/12/16 02:17:06;;;;;;;20.20;11.88;;;9.70;99.90;;;;;;4955573;28;20232;-76
2023/12/16 02:19:35;;;;;;;25.15;13.63;;;9.70;99.90;;;;;;4956120;28;20228;-81
2023/12/16 02:22:01;;;;;;;28.20;14.00;;;9.70;99.90;;;;;;4955468;28;20242;-80
2023/12/16 02:24:31;;;;;;;21.33;12.80;;;9.70;99.90;;;;;;4955592;29;20560;-76
2023/12/16 02:26:58;;;;;;;19.48;13.60;;;9.70;99.90;;;;;;4956363;29;20813;-81
2023/12/16 02:29:26;;;;;;;17.02;11.32;;;9.70;99.90;;;;;;4955970;29;20224;-76
2023/12/16 02:31:52;;;;;;;24.20;13.40;;;9.60;99.90;;;;;;4956050;29;20235;-81
2023/12/16 02:34:19;;;;;;;18.23;12.70;;;9.70;99.90;;;;;;4955555;29;20674;-81
2023/12/16 02:36:46;;;;;;;19.75;12.70;;;9.70;99.90;;;;;;4954494;29;20599;-76
2023/12/16 02:39:14;;;;;;;20.27;12.60;;;9.70;99.90;;;;;;4954819;29;20244;-76
2023/12/16 02:41:42;;;;;;;21.63;11.52;;;9.70;99.90;;;;;;4943571;29;20258;-81
2023/12/16 02:44:09;;;;;;;20.75;11.75;;;9.70;99.90;;;;;;4955235;29;20232;-81
2023/12/16 02:46:36;;;;;;;19.85;15.07;;;9.70;99.90;;;;;;4955436;29;20227;-76
2023/12/16 02:49:03;;;;;;;19.83;11.13;;;9.70;99.90;;;;;;4955147;29;20224;-76
2023/12/16 02:51:31;;;;;;;19.27;12.50;;;9.70;99.90;;;;;;4955073;28;20239;-81
2023/12/16 02:53:58;;;;;;;17.92;12.85;;;9.70;99.90;;;;;;4936850;29;20239;-76
2023/12/16 02:56:26;;;;;;;16.42;12.50;;;9.70;99.90;;;;;;4936025;29;20232;-76
2023/12/16 02:58:57;;;;;;;16.38;10.63;;;9.70;99.90;;;;;;4936630;29;20401;-75
2023/12/16 03:01:30;;;;;;;27.55;15.63;;;9.70;99.90;;;;;;4935652;29;20229;-80
2023/12/16 03:03:57;;;;;;;20.50;12.48;;;9.70;99.90;;;;;;4936118;29;20754;-80
2023/12/16 03:06:24;;;;;;;18.05;13.00;;;9.70;99.90;;;;;;4934723;29;20702;-75
2023/12/16 03:08:51;;;;;;;16.45;11.90;;;9.70;99.90;;;;;;4935361;29;20235;-80
2023/12/16 03:11:18;;;;;;;18.15;13.13;;;9.70;99.90;;;;;;4935577;29;20224;-79
2023/12/16 03:13:45;;;;;;;16.90;10.80;;;9.70;99.90;;;;;;4935545;29;20225;-82
2023/12/16 03:16:14;;;;;;;20.95;14.40;;;9.70;99.90;;;;;;4935786;29;20236;-79
2023/12/16 03:18:41;;;;;;;16.40;12.05;;;9.70;99.90;;;;;;4934673;29;20237;-80
2023/12/16 03:21:08;;;;;;;16.38;12.55;;;9.70;99.90;;;;;;4934397;29;20233;-80
2023/12/16 03:23:35;;;;;;;16.05;11.80;;;9.70;99.90;;;;;;4934117;29;20225;-75
2023/12/16 03:26:02;;;;;;;24.45;14.20;;;9.70;99.90;;;;;;4934008;29;20233;-75
2023/12/16 03:28:29;;;;;;;22.35;13.18;;;9.70;99.90;;;;;;4933231;29;20225;-75
2023/12/16 03:30:56;;;;;;;24.17;13.95;;;9.70;99.90;;;;;;4933652;29;20228;-79
2023/12/16 03:33:24;;;;;;;17.98;11.50;;;9.80;99.90;;;;;;4935655;29;20248;-75
2023/12/16 03:35:51;;;;;;;19.40;12.30;;;9.70;99.90;;;;;;4935943;29;20239;-75
2023/12/16 03:38:18;;;;;;;16.88;12.15;;;9.70;99.90;;;;;;4935689;29;20687;-76
2023/12/16 03:40:45;;;;;;;32.28;14.60;;;9.80;99.90;;;;;;4935893;29;20233;-80
2023/12/16 03:43:13;;;;;;;21.95;14.68;;;9.70;99.90;;;;;;4935865;29;20243;-79
2023/12/16 03:45:40;;;;;;;19.23;13.65;;;9.70;99.90;;;;;;4935658;29;20232;-79
2023/12/16 03:48:07;;;;;;;27.05;15.57;;;9.80;99.90;;;;;;4936084;29;20232;-75
2023/12/16 03:50:35;;;;;;;27.15;17.45;;;9.80;99.90;;;;;;4935520;29;20236;-79
2023/12/16 03:53:03;;;;;;;26.20;16.40;;;9.80;99.90;;;;;;4935686;29;20240;-79
2023/12/16 03:55:30;;;;;;;30.77;15.23;;;9.70;99.90;;;;;;4935723;29;20307;-79
2023/12/16 03:57:58;;;;;;;21.40;15.63;;;9.80;99.90;;;;;;4935803;29;20231;-80
2023/12/16 04:00:25;;;;;;;29.60;15.43;;;9.80;99.90;;;;;;4935623;29;20617;-79
2023/12/16 04:02:52;;;;;;;24.02;15.15;;;9.80;99.90;;;;;;4935994;29;20237;-79
2023/12/16 04:05:26;;;;;;;30.40;16.17;;;9.80;99.90;;;;;;4938565;29;20571;-76
2023/12/16 04:07:54;;;;;;;30.95;16.85;;;9.80;99.90;;;;;;4939804;29;20243;-75
2023/12/16 04:10:21;;;;;;;28.95;16.70;;;9.80;99.90;;;;;;4938221;29;20252;-75
2023/12/16 04:12:49;;;;;;;24.83;15.88;;;9.80;99.90;;;;;;4939594;29;20232;-74
2023/12/16 04:15:16;;;;;;;21.73;15.50;;;9.80;99.90;;;;;;4938907;29;20320;-74
2023/12/16 04:17:43;;;;;;;27.65;16.75;;;9.80;99.90;;;;;;4939253;29;20233;-79
2023/12/16 04:20:09;;;;;;;24.50;18.23;;;9.80;99.90;;;;;;4939817;29;20228;-79
2023/12/16 04:22:37;;;;;;;25.58;17.70;;;9.80;99.90;;;;;;4939261;29;20255;-75
2023/12/16 04:25:10;;;;;;;21.80;16.90;;;9.80;99.90;;;;;;4930727;29;20676;-80
2023/12/16 04:27:38;;;;;;;20.08;16.52;;;9.80;99.90;;;;;;4924868;29;20234;-79
2023/12/16 04:30:06;;;;;;;34.60;16.38;;;9.80;99.90;;;;;;4922231;29;20732;-75
2023/12/16 04:32:33;;;;;;;29.35;16.48;;;9.80;99.90;;;;;;4920853;29;20225;-75
2023/12/16 04:35:07;;;;;;;33.70;17.38;;;9.90;99.90;;;;;;4920506;29;20233;-75
2023/12/16 04:37:34;;;;;;;28.23;17.40;;;9.80;99.90;;;;;;4920676;29;20228;-80
2023/12/16 04:40:01;;;;;;;28.45;17.30;;;9.80;99.90;;;;;;4920203;29;20237;-75
2023/12/16 04:42:29;;;;;;;22.80;16.35;;;9.80;99.90;;;;;;4919502;29;20236;-75
2023/12/16 04:44:56;;;;;;;23.40;16.80;;;9.80;99.90;;;;;;4920101;29;20248;-75
2023/12/16 04:47:23;;;;;;;27.33;16.48;;;9.80;99.90;;;;;;4919491;29;20285;-75
2023/12/16 04:49:50;;;;;;;21.98;14.48;;;9.80;99.90;;;;;;4920172;29;20569;-75
2023/12/16 04:52:18;;;;;;;25.58;18.10;;;9.80;99.90;;;;;;4919797;29;20241;-80
2023/12/16 04:54:45;;;;;;;27.25;18.02;;;9.80;99.90;;;;;;4915045;29;20228;-75
2023/12/16 04:57:13;;;;;;;19.63;15.60;;;9.80;99.90;;;;;;4919797;29;20260;-75
2023/12/16 04:59:41;;;;;;;26.33;17.20;;;9.80;99.90;;;;;;4919174;29;20233;-75
2023/12/16 05:02:08;;;;;;;26.45;16.83;;;9.80;99.90;;;;;;4919589;29;20225;-79
2023/12/16 05:04:35;;;;;;;32.20;18.02;;;9.80;99.90;;;;;;4919133;29;20246;-79
2023/12/16 05:07:02;;;;;;;27.48;19.23;;;9.80;99.90;;;;;;4919478;29;20691;-75
2023/12/16 05:09:29;;;;;;;27.95;16.13;;;9.70;99.90;;;;;;4919322;29;20222;-75
2023/12/16 05:12:00;;;;;;;26.67;16.00;;;9.80;99.90;;;;;;4919616;29;20687;-75
2023/12/16 05:14:27;;;;;;;25.40;17.08;;;9.70;99.90;;;;;;4918732;29;20747;-79
2023/12/16 05:16:56;;;;;;;23.48;15.82;;;9.70;99.90;;;;;;4919532;29;20232;-75
2023/12/16 05:19:23;;;;;;;26.48;17.48;;;9.70;99.90;;;;;;4918678;29;20668;-76
2023/12/16 05:21:50;;;;;;;24.00;17.13;;;9.70;99.90;;;;;;4919395;29;20226;-75
2023/12/16 05:24:18;;;;;;;32.22;17.90;;;9.70;99.90;;;;;;4918640;29;20606;-79
2023/12/16 05:26:45;;;;;;;26.95;16.92;;;9.70;99.90;;;;;;4918563;29;20292;-75
2023/12/16 05:29:12;;;;;;;20.63;15.18;;;9.70;99.90;;;;;;4919071;29;20308;-75
2023/12/16 05:31:42;;;;;;;28.98;17.05;;;9.70;99.90;;;;;;4918702;29;20251;-75
2023/12/16 05:34:10;;;;;;;26.17;15.05;;;9.70;99.90;;;;;;4918905;29;20680;-76
2023/12/16 05:36:37;;;;;;;23.92;16.60;;;9.70;99.90;;;;;;4918365;29;20221;-80
2023/12/16 05:39:05;;;;;;;20.70;15.68;;;9.70;99.90;;;;;;4919107;29;20241;-79
2023/12/16 05:41:32;;;;;;;24.35;15.68;;;9.60;99.90;;;;;;4918221;29;20245;-79
2023/12/16 05:43:59;;;;;;;18.25;13.88;;;9.60;99.90;;;;;;4919143;29;20257;-75
2023/12/16 05:46:26;;;;;;;28.20;15.50;;;9.60;99.90;;;;;;4918291;29;20232;-75
2023/12/16 05:48:53;;;;;;;20.20;14.18;;;9.50;99.90;;;;;;4918896;29;20253;-75
2023/12/16 05:51:22;;;;;;;20.25;14.60;;;9.60;99.90;;;;;;4918546;29;20225;-80
2023/12/16 05:53:48;;;;;;;16.20;12.73;;;9.60;99.90;;;;;;4917501;29;20249;-75
2023/12/16 05:56:15;;;;;;;21.40;14.43;;;9.60;99.90;;;;;;4918485;29;20233;-75
2023/12/16 05:58:42;;;;;;;25.23;14.32;;;9.60;99.90;;;;;;4917898;29;20230;-79
2023/12/16 06:01:10;;;;;;;21.83;14.52;;;9.60;99.90;;;;;;4918704;29;20618;-80
2023/12/16 06:03:37;;;;;;;20.65;14.57;;;9.60;99.90;;;;;;4917547;29;20233;-79
2023/12/16 06:06:08;;;;;;;20.90;14.30;;;9.60;99.90;;;;;;4918553;29;20684;-80
2023/12/16 06:08:36;;;;;;;35.42;20.15;;;9.60;99.90;;;;;;4918075;29;20574;-74
2023/12/16 06:11:06;;;;;;;29.30;16.15;;;9.50;99.90;;;;;;4918400;29;20694;-75
2023/12/16 06:13:33;;;;;;;27.15;15.02;;;9.50;99.90;;;;;;4907529;29;20626;-75
2023/12/16 06:16:00;;;;;;;22.30;14.65;;;9.50;99.90;;;;;;4917546;29;20229;-79
2023/12/16 06:18:27;;;;;;;18.95;14.70;;;9.50;99.90;;;;;;4918076;29;20253;-80
2023/12/16 06:20:54;;;;;;;20.80;14.45;;;9.50;99.90;;;;;;4917764;29;20622;-79
2023/12/16 06:23:21;;;;;;;22.42;13.90;;;9.50;99.90;;;;;;4918362;29;20244;-79
2023/12/16 06:25:49;;;;;;;23.67;14.25;;;9.60;99.90;;;;;;4931415;29;20695;-79
2023/12/16 06:28:16;;;;;;;18.30;13.18;;;9.50;99.90;;;;;;4936568;29;20231;-75
2023/12/16 06:30:44;;;;;;;20.45;14.05;;;9.60;99.90;;;;;;4936210;29;20240;-79
2023/12/16 06:33:11;;;;;;;26.65;12.45;;;9.50;99.90;;;;;;4937177;29;20549;-80
2023/12/16 06:35:38;;;;;;;23.00;12.25;;;9.60;99.90;;;;;;4936556;29;20251;-79
2023/12/16 06:38:05;;;;;;;16.10;11.57;;;9.60;99.90;;;;;;4936936;29;20280;-75
2023/12/16 06:40:32;;;;;;;21.30;13.30;;;9.60;99.90;;;;;;4936580;29;20323;-79
2023/12/16 06:43:00;;;;;;;17.83;12.55;;;9.60;99.90;;;;;;4936548;29;20307;-80
2023/12/16 06:45:28;;;;;;;20.48;11.45;;;9.60;99.90;;;;;;4936720;29;20252;-80
2023/12/16 06:47:54;;;;;;;15.20;10.60;;;9.70;99.90;;;;;;4935662;29;20307;-80
2023/12/16 06:50:21;;;;;;;14.32;9.75;;;9.70;99.90;;;;;;4936806;29;20683;-79
2023/12/16 06:52:48;;;;;;;17.75;13.02;;;9.70;99.90;;;;;;4936286;29;20336;-79
2023/12/16 06:55:16;;;;;;;16.77;10.43;;;9.70;99.90;;;;;;4936705;29;20291;-79
2023/12/16 06:57:43;;;;;;;15.88;10.38;;;9.70;99.90;;;;;;4935697;29;20232;-75
2023/12/16 07:00:12;;;;;;;17.92;11.52;;;9.80;99.90;;;;;;4936706;29;20691;-75
2023/12/16 07:02:41;;;;;;;19.45;12.38;;;9.70;99.90;;;;;;4935814;29;20233;-76
2023/12/16 07:05:10;;;;;;;19.52;12.80;;;9.70;99.90;;;;;;4936750;29;20260;-75
2023/12/16 07:07:37;;;;;;;17.75;11.10;;;9.80;99.90;;;;;;4936360;29;20283;-75
2023/12/16 07:10:06;;;;;;;22.30;13.45;;;9.80;99.90;;;;;;4935797;29;20263;-75
2023/12/16 07:12:33;;;;;;;17.13;12.05;;;9.80;99.90;;;;;;4936284;29;20240;-75
2023/12/16 07:15:00;;;;;;;19.63;12.00;;;9.80;99.90;;;;;;4936099;29;20243;-79
2023/12/16 07:17:29;;;;;;;19.60;10.57;;;9.80;99.90;;;;;;4936255;29;20232;-75
2023/12/16 07:19:56;;;;;;;21.35;11.75;;;9.80;99.90;;;;;;4935855;29;20314;-75
2023/12/16 07:22:23;;;;;;;20.80;12.63;;;9.80;99.90;;;;;;4936020;29;20277;-75
2023/12/16 07:24:50;;;;;;;14.48;10.60;;;9.80;99.90;;;;;;4935598;29;20247;-75
2023/12/16 07:27:17;;;;;;;21.55;11.38;;;9.90;99.90;;;;;;4935544;29;20228;-79
2023/12/16 07:29:44;;;;;;;16.05;10.32;;;9.80;99.90;;;;;;4934973;29;20233;-75
2023/12/16 07:32:11;;;;;;;20.67;9.88;;;9.80;99.90;;;;;;4936271;29;20225;-75
2023/12/16 07:34:40;;;;;;;13.77;9.23;;;9.70;99.90;;;;;;4936297;29;20747;-75
2023/12/16 07:37:07;;;;;;;23.92;11.65;;;9.70;99.90;;;;;;4935665;29;20225;-75
2023/12/16 07:39:34;;;;;;;16.08;9.95;;;9.70;99.90;;;;;;4935743;29;20288;-75
2023/12/16 07:42:01;;;;;;;17.20;10.00;;;9.80;99.90;;;;;;4935294;29;20291;-75
2023/12/16 07:44:28;;;;;;;12.85;8.93;;;9.80;99.90;;;;;;4936039;29;20291;-75
2023/12/16 07:46:55;;;;;;;16.83;8.63;;;9.70;99.90;;;;;;4935571;29;20243;-80
2023/12/16 07:49:25;;;;;;;14.85;9.10;;;9.70;99.90;;;;;;4936208;29;20240;-80
2023/12/16 07:51:55;;;;;;;18.15;9.20;;;9.80;99.90;;;;;;4935415;29;20232;-75
2023/12/16 07:54:27;;;;;;;17.27;10.00;;;9.80;99.90;;;;;;4936006;29;20668;-79
2023/12/16 07:56:54;;;;;;;15.40;8.60;;;9.80;99.90;;;;;;4935323;29;20710;-80
2023/12/16 07:59:25;;;;;;;18.67;10.23;;;9.80;99.90;;;;;;4935683;29;20225;-79
2023/12/16 08:01:56;;;;;;;17.90;8.93;;;9.80;99.90;;;;;;4924419;29;20328;-79
2023/12/16 08:04:23;;;;;;;13.82;7.65;;;9.90;99.90;;;;;;4935773;29;20228;-79
2023/12/16 08:06:50;;;;;;;19.90;8.45;;;9.90;99.90;;;;;;4935457;29;20259;-79
2023/12/16 08:09:18;;;;;;;15.20;8.30;;;9.90;99.90;;;;;;4935905;29;20292;-79
2023/12/16 08:11:45;;;;;;;13.07;8.88;;;9.90;99.90;;;;;;4935711;29;20221;-79
2023/12/16 08:14:12;;;;;;;15.18;8.38;;;9.90;99.90;;;;;;4935385;29;20312;-80
2023/12/16 08:16:40;;;;;;;15.20;9.10;;;9.90;99.90;;;;;;4936069;29;20315;-80
2023/12/16 08:19:14;;;;;;;11.85;7.35;;;9.90;99.90;;;;;;4935138;29;20232;-75
2023/12/16 08:21:41;;;;;;;12.57;7.32;;;9.90;99.90;;;;;;4936215;29;20228;-81
2023/12/16 08:24:08;;;;;;;19.15;10.43;;;9.90;99.90;;;;;;4935180;29;20228;-81
2023/12/16 08:26:37;;;;;;;13.10;8.25;;;9.90;99.90;;;;;;4936209;29;20228;-81
2023/12/16 08:29:04;;;;;;;12.68;8.18;;;9.90;99.90;;;;;;4937669;29;20229;-81
2023/12/16 08:31:31;;;;;;;16.35;8.48;;;9.90;99.90;;;;;;4935921;29;20224;-82
2023/12/16 08:33:58;;;;;;;15.43;8.38;;;9.90;99.90;;;;;;4935306;29;20236;-81
2023/12/16 08:36:25;;;;;;;14.82;8.52;;;9.90;99.90;;;;;;4936837;29;20236;-82
2023/12/16 08:38:52;;;;;;;15.35;9.10;;;9.90;99.90;;;;;;4936614;29;20228;-81
2023/12/16 08:41:19;;;;;;;13.77;6.25;;;9.90;99.90;;;;;;4936205;29;20228;-76
2023/12/16 08:43:47;;;;;;;14.15;7.93;;;9.90;99.90;;;;;;4935720;29;20240;-76
2023/12/16 08:46:14;;;;;;;11.80;9.02;;;9.90;99.90;;;;;;4936555;29;20225;-80
2023/12/16 08:48:41;;;;;;;16.70;9.77;;;10.00;99.90;;;;;;4938081;29;20229;-80
2023/12/16 08:51:08;;;;;;;12.60;8.77;;;10.00;99.90;;;;;;4937698;29;20256;-76
2023/12/16 08:53:35;;;;;;;14.88;9.25;;;10.00;99.90;;;;;;4939234;29;20243;-76
2023/12/16 08:56:02;;;;;;;17.00;9.18;;;10.00;99.90;;;;;;4938740;29;20240;-81
2023/12/16 08:58:29;;;;;;;13.23;8.35;;;10.00;99.90;;;;;;4939760;29;20229;-81
2023/12/16 09:00:58;;;;;;;13.40;9.27;;;10.00;99.90;;;;;;4938891;29;20308;-80
2023/12/16 09:03:25;;;;;;;12.60;7.82;;;10.00;99.90;;;;;;4938842;29;20229;-80
2023/12/16 09:05:52;;;;;;;16.52;9.07;;;10.00;99.90;;;;;;4938271;29;20228;-80
2023/12/16 09:08:19;;;;;;;13.13;8.60;;;10.10;99.90;;;;;;4938450;29;20252;-80
2023/12/16 09:10:46;;;;;;;13.65;8.65;;;10.10;99.90;;;;;;4938342;29;20236;-76
2023/12/16 09:13:19;;;;;;;11.60;7.95;;;10.10;99.90;;;;;;4937606;29;20315;-76
2023/12/16 09:15:46;;;;;;;12.65;8.50;;;10.10;99.90;;;;;;4938328;29;20225;-76
2023/12/16 09:18:14;;;;;;;15.95;8.98;;;10.10;99.90;;;;;;4937543;29;20228;-76
2023/12/16 09:20:41;;;;;;;14.48;8.15;;;10.20;99.90;;;;;;4937935;29;20228;-76
2023/12/16 09:23:09;;;;;;;10.02;7.40;;;10.20;99.90;;;;;;4937534;29;20315;-76
2023/12/16 09:25:36;;;;;;;10.48;6.20;;;10.20;99.90;;;;;;4938463;29;20228;-76
2023/12/16 09:28:04;;;;;;;14.18;5.65;;;10.20;99.90;;;;;;4937762;29;20229;-76
2023/12/16 09:30:31;;;;;;;11.85;6.47;;;10.20;99.90;;;;;;4938331;29;20263;-76
2023/12/16 09:32:58;;;;;;;10.70;5.20;;;10.30;99.90;;;;;;4937145;29;20311;-76
2023/12/16 09:35:34;;;;;;;8.48;4.78;;;10.30;99.90;;;;;;4938220;29;20570;-76
2023/12/16 09:38:01;;;;;;;14.60;6.50;;;10.30;99.90;;;;;;4937772;29;20235;-76
2023/12/16 09:40:28;;;;;;;9.98;6.70;;;10.40;99.90;;;;;;4937775;29;20703;-76
2023/12/16 09:43:02;;;;;;;9.82;6.15;;;10.30;99.90;;;;;;4937929;29;20243;-76
2023/12/16 09:45:29;;;;;;;8.23;5.15;;;10.40;99.90;;;;;;4937864;29;21027;-76
2023/12/16 09:47:56;;;;;;;6.55;4.80;;;10.40;99.90;;;;;;4937736;29;20245;-76
2023/12/16 09:50:23;;;;;;;5.40;4.22;;;10.40;99.90;;;;;;4936671;29;20236;-76
2023/12/16 09:52:52;;;;;;;8.98;3.78;;;10.40;99.90;;;;;;4937962;29;20239;-81
2023/12/16 09:55:19;;;;;;;7.10;3.65;;;10.40;99.90;;;;;;4936536;29;20225;-77
2023/12/16 09:57:48;;;;;;;9.98;4.75;;;10.40;99.90;;;;;;4937331;29;20680;-76
2023/12/16 10:00:17;;;;;;;9.25;3.90;;;10.40;99.90;;;;;;4937135;29;20311;-76
2023/12/16 10:02:47;;;;;;;7.72;4.25;;;10.40;99.90;;;;;;4936862;29;20236;-81
2023/12/16 10:05:16;;;;;;;7.40;4.97;;;10.40;99.90;;;;;;4937474;29;20228;-81
2023/12/16 10:07:42;;;;;;;7.90;4.75;;;10.40;99.90;;;;;;4938133;29;20567;-80
2023/12/16 10:10:12;;;;;;;7.55;3.70;;;10.50;99.90;;;;;;4937216;29;20225;-81
2023/12/16 10:12:40;;;;;;;5.00;3.80;;;10.50;99.90;;;;;;4938387;29;20248;-80
2023/12/16 10:15:07;;;;;;;15.00;4.80;;;10.50;99.90;;;;;;4938651;29;20244;-80
2023/12/16 10:17:34;;;;;;;12.85;5.57;;;10.50;99.90;;;;;;4937931;29;20225;-75
2023/12/16 10:20:03;;;;;;;14.57;5.40;;;10.50;99.90;;;;;;4937471;29;20252;-75
2023/12/16 10:22:30;;;;;;;12.65;4.80;;;10.50;99.90;;;;;;4938554;29;20237;-80
2023/12/16 10:24:57;;;;;;;10.50;4.70;;;10.50;99.90;;;;;;4937569;29;20236;-81
2023/12/16 10:27:27;;;;;;;14.02;5.90;;;10.50;99.90;;;;;;4937719;29;20239;-80
2023/12/16 10:29:55;;;;;;;12.23;7.20;;;10.50;99.90;;;;;;4937887;29;20256;-76
2023/12/16 10:32:21;;;;;;;9.55;6.32;;;10.50;99.90;;;;;;4937197;29;20746;-81
2023/12/16 10:34:51;;;;;;;5.55;4.80;;;10.50;99.90;;;;;;4938247;29;20236;-80
2023/12/16 10:37:18;;;;;;;8.77;5.43;;;10.50;99.90;;;;;;4937598;29;20559;-79
2023/12/16 10:39:45;;;;;;;14.70;7.20;;;10.50;99.90;;;;;;4937296;29;20271;-80
2023/12/16 10:42:12;;;;;;;7.88;6.50;;;10.50;99.90;;;;;;4936368;29;20236;-78
2023/12/16 10:44:40;;;;;;;10.52;4.45;;;10.50;99.90;;;;;;4937375;29;20240;-75
2023/12/16 10:47:10;;;;;;;6.53;4.55;;;10.50;99.90;;;;;;4936244;29;20229;-75
2023/12/16 10:49:43;;;;;;;12.10;5.00;;;10.50;99.90;;;;;;4935897;29;20338;-75
2023/12/16 10:52:13;;;;;;;6.93;4.55;;;10.50;99.90;;;;;;4936929;29;20259;-75
2023/12/16 10:54:42;;;;;;;10.40;4.05;;;10.60;99.90;;;;;;4936313;29;20232;-75
2023/12/16 10:57:20;;;;;;;10.90;4.65;;;10.60;99.90;;;;;;4935969;29;20240;-75
2023/12/16 10:59:59;;;;;;;7.18;5.20;;;10.60;99.90;;;;;;4936607;29;20251;-75
2023/12/16 11:02:28;;;;;;;9.00;4.55;;;10.70;99.90;;;;;;4935785;29;20226;-76
2023/12/16 11:04:59;;;;;;;10.10;5.40;;;10.70;99.90;;;;;;4936702;29;20232;-76
2023/12/16 11:07:29;;;;;;;9.68;4.40;;;10.70;99.90;;;;;;4935790;29;20565;-77
2023/12/16 11:09:59;;;;;;;6.90;4.30;;;10.70;99.90;;;;;;4937598;29;20232;-80
2023/12/16 11:12:26;;;;;;;6.03;3.40;;;10.70;99.90;;;;;;4936124;29;20232;-76
2023/12/16 11:15:06;;;;;;;6.97;4.30;;;10.70;99.90;;;;;;4937484;29;20225;-80
2023/12/16 11:17:41;;;;;;;7.25;4.25;;;10.80;99.90;;;;;;4936704;29;20582;-80
2023/12/16 11:20:14;;;;;;;13.18;5.15;;;10.80;99.90;;;;;;4936178;29;20220;-75
2023/12/16 11:22:46;;;;;;;5.07;4.00;;;10.80;99.90;;;;;;4935926;29;20359;-75
2023/12/16 11:25:18;;;;;;;10.55;4.20;;;10.80;99.90;;;;;;4936454;29;20291;-75
2023/12/16 11:27:47;;;;;;;6.43;3.80;;;10.70;99.90;;;;;;4935069;29;20323;-75
2023/12/16 11:30:16;;;;;;;15.35;4.63;;;10.80;99.90;;;;;;4936602;29;20260;-79
2023/12/16 11:32:48;;;;;;;11.68;5.03;;;10.80;99.90;;;;;;4937080;29;20232;-80
2023/12/16 11:35:15;;;;;;;9.05;4.53;;;10.80;99.90;;;;;;4937524;29;20682;-81
2023/12/16 11:37:46;;;;;;;10.68;4.50;;;10.80;99.90;;;;;;4936056;29;20244;-76
2023/12/16 11:40:42;;;;;;;7.88;4.45;;;10.80;99.90;;;;;;4936613;29;20217;-80
2023/12/16 11:43:10;;;;;;;8.38;4.65;;;10.80;99.90;;;;;;4936331;29;20606;-75
2023/12/16 11:45:40;;;;;;;12.65;4.22;;;10.90;99.90;;;;;;4937810;29;20228;-75
2023/12/16 11:48:08;;;;;;;10.60;4.95;;;10.80;99.90;;;;;;4935316;29;20252;-76
2023/12/16 11:50:37;;;;;;;7.28;4.30;;;10.80;99.90;;;;;;4935621;29;20228;-75
2023/12/16 11:53:05;;;;;;;10.95;4.85;;;10.80;99.90;;;;;;4936450;29;20233;-75
2023/12/16 11:55:32;;;;;;;7.40;4.07;;;10.90;99.90;;;;;;4935501;29;20224;-76
2023/12/16 11:58:00;;;;;;;16.00;4.78;;;10.90;99.90;;;;;;4936663;29;20252;-81
2023/12/16 12:00:28;;;;;;;7.00;3.90;;;10.90;99.90;;;;;;4936182;29;20690;-81
2023/12/16 12:02:59;;;;;;;11.48;5.28;;;10.90;99.90;;;;;;4937221;29;20597;-80
2023/12/16 12:05:27;;;;;;;16.10;5.80;;;10.90;99.90;;;;;;4936449;29;20241;-80
2023/12/16 12:07:54;;;;;;;10.43;4.80;;;10.90;99.90;;;;;;4936964;29;20232;-80
2023/12/16 12:10:23;;;;;;;11.27;4.82;;;11.00;99.90;;;;;;4935665;29;20228;-81
2023/12/16 12:12:53;;;;;;;10.75;5.53;;;11.00;99.90;;;;;;4936104;29;20610;-81
2023/12/16 12:15:21;;;;;;;15.68;8.50;;;11.00;99.90;;;;;;4935685;29;20229;-76
2023/12/16 12:17:48;;;;;;;14.32;8.10;;;11.00;99.90;;;;;;4935909;29;20540;-76
2023/12/16 12:20:19;;;;;;;11.48;5.50;;;10.90;99.90;;;;;;4935058;29;20858;-80
2023/12/16 12:22:46;;;;;;;9.63;5.07;;;11.00;99.90;;;;;;4935706;29;20245;-80
2023/12/16 12:25:17;;;;;;;8.02;4.60;;;11.00;99.90;;;;;;4936602;29;20328;-80
2023/12/16 12:27:44;;;;;;;15.05;8.43;;;11.00;99.90;;;;;;4939799;29;20239;-80
2023/12/16 12:30:17;;;;;;;12.38;6.60;;;11.00;99.90;;;;;;4939726;29;20683;-79
2023/12/16 12:32:44;;;;;;;11.55;6.40;;;11.10;99.90;;;;;;4939312;29;20233;-75
2023/12/16 12:35:11;;;;;;;9.45;4.80;;;11.10;99.90;;;;;;4938777;29;20235;-75
2023/12/16 12:37:41;;;;;;;8.55;5.05;;;11.00;99.90;;;;;;4939821;29;20233;-79
2023/12/16 12:40:17;;;;;;;14.48;5.80;;;11.00;99.90;;;;;;4940101;29;20228;-79
2023/12/16 12:42:46;;;;;;;9.48;3.80;;;11.00;99.90;;;;;;4939647;29;20228;-75